Ana Sayfa
METAR-TAF:

METAR-TAF

Havaalanları :

Palenque, Meksika

Enlem: 17-32-06N, Boylam: 92-00-54W, yükseklik: 60 m

Güncel hava durumu gözlemi

Rapor saat 00:43 UTC de 33 dakika önce yapıldı.
Sakin rüzgar
Sıcaklık 27°C
Nem 84%
Basınç 1009 hPa
Görüş mesafesi: 8.0 km
Açık gökyüzü

METAR: MMPQ 270043Z 00000KT 5SM SKC 27/24 A2980 RMK HZY

Saat: 19:16 (01:16 UTC)

Tahmin

Rapor saat 17:00 UTC de 8 saat ve 16 dakika önce yapıldı.
Ayın 26'si saat 18 UTC'den ayın 27'si saat 18 UTC'ye kadar geçerli Tahmin
Rüzgar doğudan 12 kt
Görüş mesafesi: 8.0 km
Açık gökyüzü
Toz Pusu
Ayın 27'si saat 0300 UTC'den
Rüzgar kuzeydan kt
Görüş mesafesi: 10 km
Açık gökyüzü
Ayın 27'si saat 1500 UTC'den
Rüzgar kuzeydan kt
Görüş mesafesi: 6.4 km
Açık gökyüzü
Toz Pusu

TAF: MMPQ 261700Z 2618/2718 09012KT 5SM HZ SKC FM270300 00000KT P6SM SKC FM271500 00000KT 4SM HZ SKC

4.000'den fazla havaalanı için hava durumu gözlemleri ve tahminleri (METAR ve TAF raporları).

Kullanılabilir istasyonlar harita üzerinde sarı ve kırmızı noktalarla gösterilir.

İstasyonun adını görmek için fareyi noktanın üzerinde gezdirin.

Sonrasında hava gözlem ve tahminlerini görmek için tıklayın.

Haritayı değiştirmek için: yaklaştırmak için siyah artı işaretli yeşil düğmeye ve uzaklaştırmak için de eksi işaretli düğmeye hızla tıklayın; bitişik haritalar için yeşil okları kullanın.


METAR-TAF: